createdAt,value
2018-10-06T00:00:33.217Z,1009.74
2018-10-06T00:01:33.172Z,1009.73
2018-10-06T00:02:33.123Z,1009.73
2018-10-06T00:03:33.080Z,1009.71
2018-10-06T00:04:33.036Z,1009.63
2018-10-06T00:05:32.989Z,1009.69
2018-10-06T00:06:32.944Z,1009.68
2018-10-06T00:07:32.997Z,1009.69
2018-10-06T00:08:32.855Z,1009.70
2018-10-06T00:09:32.810Z,1009.66
2018-10-06T00:10:32.764Z,1009.64
2018-10-06T00:11:32.956Z,1009.65
2018-10-06T00:12:32.675Z,1009.62
2018-10-06T00:13:32.630Z,1009.61
2018-10-06T00:14:32.588Z,1009.59
2018-10-06T00:15:32.540Z,1009.59
2018-10-06T00:16:32.496Z,1009.59
2018-10-06T00:17:32.465Z,1009.61
2018-10-06T00:18:32.410Z,1009.57
2018-10-06T00:19:32.359Z,1009.60
2018-10-06T00:20:32.318Z,1009.58
2018-10-06T00:21:32.273Z,1009.55
2018-10-06T00:22:32.225Z,1009.55
2018-10-06T00:23:32.188Z,1009.57
2018-10-06T00:24:32.135Z,1009.58
2018-10-06T00:25:32.090Z,1009.50
2018-10-06T00:26:32.043Z,1009.52
2018-10-06T00:27:32.002Z,1009.50
2018-10-06T00:28:31.954Z,1009.51
2018-10-06T00:29:31.909Z,1009.48
2018-10-06T00:30:31.866Z,1009.44
2018-10-06T00:31:31.820Z,1009.44
2018-10-06T00:32:31.775Z,1009.44
2018-10-06T00:33:31.729Z,1009.43
2018-10-06T00:34:31.737Z,1009.42
2018-10-06T00:35:31.638Z,1009.41
2018-10-06T00:36:31.596Z,1009.37
2018-10-06T00:37:31.548Z,1009.36
2018-10-06T00:38:31.502Z,1009.37
2018-10-06T00:39:31.460Z,1009.37
2018-10-06T00:40:31.415Z,1009.35
2018-10-06T00:41:31.366Z,1009.32
2018-10-06T00:42:31.323Z,1009.39
2018-10-06T00:43:31.277Z,1009.35
2018-10-06T00:44:31.233Z,1009.37
2018-10-06T00:45:31.214Z,1009.35
2018-10-06T00:46:31.141Z,1009.35
2018-10-06T00:47:31.097Z,1009.36
2018-10-06T00:48:31.057Z,1009.36
2018-10-06T00:49:31.005Z,1009.35
2018-10-06T00:50:30.961Z,1009.38
2018-10-06T00:51:30.919Z,1009.37
2018-10-06T00:52:31.054Z,1009.35
2018-10-06T00:53:30.827Z,1009.34
2018-10-06T00:54:30.779Z,1009.30
2018-10-06T00:55:30.734Z,1009.34
2018-10-06T00:56:30.691Z,1009.37
2018-10-06T00:57:30.650Z,1009.33
2018-10-06T00:58:30.600Z,1009.33
2018-10-06T00:59:30.555Z,1009.32
2018-10-06T01:00:30.573Z,1009.30
2018-10-06T01:01:30.461Z,1009.32
2018-10-06T01:02:30.422Z,1009.30
2018-10-06T01:03:30.372Z,1009.32
2018-10-06T01:04:30.328Z,1009.28
2018-10-06T01:05:30.282Z,1009.31
2018-10-06T01:06:30.236Z,1009.24
2018-10-06T01:07:30.192Z,1009.27
2018-10-06T01:08:30.148Z,1009.25
2018-10-06T01:09:30.099Z,1009.25
2018-10-06T01:10:30.065Z,1009.23
2018-10-06T01:11:30.011Z,1009.24
2018-10-06T01:12:29.964Z,1009.23
2018-10-06T01:13:29.923Z,1009.21
2018-10-06T01:14:29.879Z,1009.19
2018-10-06T01:15:29.893Z,1009.17
2018-10-06T01:16:29.783Z,1009.21
2018-10-06T01:17:29.737Z,1009.22
2018-10-06T01:18:29.693Z,1009.18
2018-10-06T01:19:29.647Z,1009.15
2018-10-06T01:20:29.602Z,1009.14
2018-10-06T01:21:29.562Z,1009.12
2018-10-06T01:22:29.512Z,1009.13
2018-10-06T01:23:29.468Z,1009.16
2018-10-06T01:24:29.420Z,1009.14
2018-10-06T01:25:29.373Z,1009.15
2018-10-06T01:26:29.330Z,1009.13
2018-10-06T01:27:29.283Z,1009.10
2018-10-06T01:28:29.241Z,1009.12
2018-10-06T01:29:29.192Z,1009.09
2018-10-06T01:30:29.148Z,1009.03
2018-10-06T01:31:29.104Z,1009.05
2018-10-06T01:32:29.061Z,1009.04
2018-10-06T01:33:29.015Z,1009.02
2018-10-06T01:34:28.964Z,1009.02
2018-10-06T01:35:28.919Z,1008.99
2018-10-06T01:36:28.875Z,1008.99
2018-10-06T01:37:28.830Z,1008.96
2018-10-06T01:38:28.804Z,1008.98
2018-10-06T01:39:28.737Z,1008.96
2018-10-06T01:40:28.700Z,1008.91
2018-10-06T01:41:28.647Z,1008.92
2018-10-06T01:42:28.602Z,1008.87
2018-10-06T01:43:28.556Z,1008.86
2018-10-06T01:44:28.518Z,1008.84
2018-10-06T01:45:28.464Z,1008.82
2018-10-06T01:46:28.421Z,1008.81
2018-10-06T01:47:28.376Z,1008.82
2018-10-06T01:48:28.331Z,1008.82
2018-10-06T01:49:28.286Z,1008.81
2018-10-06T01:50:28.239Z,1008.83
2018-10-06T01:51:28.192Z,1008.82
2018-10-06T01:52:28.151Z,1008.77
2018-10-06T01:53:28.101Z,1008.77
2018-10-06T01:54:28.055Z,1008.78
2018-10-06T01:55:28.010Z,1008.78
2018-10-06T01:56:27.965Z,1008.76
2018-10-06T01:57:27.918Z,1008.71
2018-10-06T01:58:27.873Z,1008.72
2018-10-06T01:59:27.829Z,1008.68
2018-10-06T02:00:27.783Z,1008.68
2018-10-06T02:01:27.738Z,1008.69
2018-10-06T02:02:27.691Z,1008.66
2018-10-06T02:03:27.646Z,1008.67
2018-10-06T02:04:27.601Z,1008.65
2018-10-06T02:05:27.559Z,1008.67
2018-10-06T02:06:27.509Z,1008.65
2018-10-06T02:07:27.463Z,1008.64
2018-10-06T02:08:27.424Z,1008.61
2018-10-06T02:09:27.373Z,1008.61
2018-10-06T02:10:27.325Z,1008.57
2018-10-06T02:11:27.284Z,1008.57
2018-10-06T02:12:27.237Z,1008.56
2018-10-06T02:13:27.191Z,1008.56
2018-10-06T02:14:27.143Z,1008.55
2018-10-06T02:15:27.103Z,1008.55
2018-10-06T02:16:27.056Z,1008.58
2018-10-06T02:17:27.013Z,1008.57
2018-10-06T02:18:26.962Z,1008.61
2018-10-06T02:19:26.921Z,1008.62
2018-10-06T02:20:26.872Z,1008.61
2018-10-06T02:21:26.827Z,1008.63
2018-10-06T02:22:26.794Z,1008.60
2018-10-06T02:23:26.734Z,1008.57
2018-10-06T02:24:26.691Z,1008.56
2018-10-06T02:25:26.642Z,1008.59
2018-10-06T02:26:26.597Z,1008.58
2018-10-06T02:27:26.553Z,1008.54
2018-10-06T02:28:26.507Z,1008.54
2018-10-06T02:29:26.462Z,1008.52
2018-10-06T02:30:26.417Z,1008.53
2018-10-06T02:31:26.371Z,1008.53
2018-10-06T02:32:26.329Z,1008.48
2018-10-06T02:33:26.278Z,1008.47
2018-10-06T02:34:26.273Z,1008.50
2018-10-06T02:35:26.302Z,1008.44
2018-10-06T02:36:26.148Z,1008.43
2018-10-06T02:37:26.098Z,1008.44
2018-10-06T02:38:26.050Z,1008.43
2018-10-06T02:39:26.007Z,1008.40
2018-10-06T02:40:25.961Z,1008.36
2018-10-06T02:41:25.915Z,1008.36
2018-10-06T02:42:25.876Z,1008.39
2018-10-06T02:43:25.823Z,1008.37
2018-10-06T02:44:25.777Z,1008.36
2018-10-06T02:45:25.731Z,1008.35
2018-10-06T02:46:25.686Z,1008.31
2018-10-06T02:47:25.642Z,1008.30
2018-10-06T02:48:25.598Z,1008.32
2018-10-06T02:49:25.548Z,1008.32
2018-10-06T02:50:25.505Z,1008.30
2018-10-06T02:51:25.460Z,1008.31
2018-10-06T02:52:25.417Z,1008.32
2018-10-06T02:53:25.366Z,1008.33
2018-10-06T02:54:25.321Z,1008.25
2018-10-06T02:55:25.275Z,1008.27
2018-10-06T02:56:25.229Z,1008.25
2018-10-06T02:57:25.182Z,1008.22
2018-10-06T02:58:25.137Z,1008.21
2018-10-06T02:59:25.093Z,1008.23
2018-10-06T03:00:25.046Z,1008.20
2018-10-06T03:01:25.001Z,1008.25
2018-10-06T03:02:24.953Z,1008.21
2018-10-06T03:03:24.915Z,1008.27
2018-10-06T03:04:24.863Z,1008.25
2018-10-06T03:05:24.817Z,1008.28
2018-10-06T03:06:24.772Z,1008.27
2018-10-06T03:07:24.726Z,1008.29
2018-10-06T03:08:24.682Z,1008.29
2018-10-06T03:09:24.634Z,1008.26
2018-10-06T03:10:24.588Z,1008.23
2018-10-06T03:11:24.543Z,1008.24
2018-10-06T03:12:24.499Z,1008.21
2018-10-06T03:13:24.456Z,1008.23
2018-10-06T03:14:24.419Z,1008.21
2018-10-06T03:15:24.360Z,1008.17
2018-10-06T03:16:24.321Z,1008.17
2018-10-06T03:17:24.269Z,1008.14
2018-10-06T03:18:24.221Z,1008.16
2018-10-06T03:19:24.177Z,1008.13
2018-10-06T03:20:24.132Z,1008.10
2018-10-06T03:21:24.089Z,1008.08
2018-10-06T03:22:24.050Z,1008.04
2018-10-06T03:23:24.000Z,1008.04
2018-10-06T03:24:23.953Z,1008.06
2018-10-06T03:25:23.907Z,1008.03
2018-10-06T03:26:23.857Z,1008.07
2018-10-06T03:27:23.815Z,1008.07
2018-10-06T03:28:23.765Z,1008.04
2018-10-06T03:29:23.717Z,1008.10
2018-10-06T03:30:23.678Z,1008.07
2018-10-06T03:31:23.626Z,1008.08
2018-10-06T03:32:23.584Z,1008.07
2018-10-06T03:33:23.535Z,1008.05
2018-10-06T03:34:23.492Z,1008.08
2018-10-06T03:35:23.444Z,1008.08
2018-10-06T03:36:23.397Z,1008.07
2018-10-06T03:37:23.360Z,1008.05
2018-10-06T03:38:23.311Z,1008.05
2018-10-06T03:39:23.259Z,1008.00
2018-10-06T03:40:23.221Z,1008.00
2018-10-06T03:41:23.171Z,1008.00
2018-10-06T03:42:23.125Z,1007.98
2018-10-06T03:43:23.077Z,1007.95
2018-10-06T03:44:23.032Z,1007.94
2018-10-06T03:45:22.984Z,1007.96
2018-10-06T03:46:22.944Z,1007.91
2018-10-06T03:47:22.897Z,1007.90
2018-10-06T03:48:22.860Z,1007.89
2018-10-06T03:49:22.806Z,1007.87
2018-10-06T03:50:22.758Z,1007.83
2018-10-06T03:51:22.710Z,1007.86
2018-10-06T03:52:22.664Z,1007.75
2018-10-06T03:53:22.624Z,1007.79
2018-10-06T03:54:22.573Z,1007.75
2018-10-06T03:55:22.537Z,1007.76
2018-10-06T03:56:22.480Z,1007.73
2018-10-06T03:57:22.437Z,1007.72
2018-10-06T03:58:22.391Z,1007.75
2018-10-06T03:59:22.345Z,1007.73
2018-10-06T04:00:22.299Z,1007.74
2018-10-06T04:01:22.257Z,1007.69
2018-10-06T04:02:22.208Z,1007.68
2018-10-06T04:03:22.158Z,1007.68
2018-10-06T04:04:22.115Z,1007.68
2018-10-06T04:05:22.068Z,1007.71
2018-10-06T04:06:22.027Z,1007.68
2018-10-06T04:07:21.976Z,1007.67
2018-10-06T04:08:21.936Z,1007.64
2018-10-06T04:09:21.886Z,1007.67
2018-10-06T04:10:21.839Z,1007.66
2018-10-06T04:11:21.795Z,1007.67
2018-10-06T04:12:21.748Z,1007.66
2018-10-06T04:13:21.701Z,1007.65
2018-10-06T04:14:21.656Z,1007.64
2018-10-06T04:15:21.615Z,1007.64
2018-10-06T04:16:21.579Z,1007.59
2018-10-06T04:17:21.521Z,1007.59
2018-10-06T04:18:21.473Z,1007.58
2018-10-06T04:19:21.440Z,1007.56
2018-10-06T04:20:21.381Z,1007.57
2018-10-06T04:21:21.334Z,1007.53
2018-10-06T04:22:21.289Z,1007.50
2018-10-06T04:23:21.247Z,1007.54
2018-10-06T04:24:21.197Z,1007.52
2018-10-06T04:25:21.150Z,1007.49
2018-10-06T04:26:21.106Z,1007.54
2018-10-06T04:27:21.062Z,1007.48
2018-10-06T04:28:21.022Z,1007.47
2018-10-06T04:29:20.967Z,1007.42
2018-10-06T04:30:20.923Z,1007.40
2018-10-06T04:31:20.876Z,1007.36
2018-10-06T04:32:20.830Z,1007.41
2018-10-06T04:33:20.783Z,1007.35
2018-10-06T04:34:20.736Z,1007.37
2018-10-06T04:35:20.693Z,1007.31
2018-10-06T04:36:20.649Z,1007.28
2018-10-06T04:37:20.604Z,1007.32
2018-10-06T04:38:20.581Z,1007.28
2018-10-06T04:39:20.513Z,1007.29
2018-10-06T04:40:20.466Z,1007.25
2018-10-06T04:41:20.418Z,1007.29
2018-10-06T04:42:20.382Z,1007.27
2018-10-06T04:43:20.326Z,1007.24
2018-10-06T04:44:20.285Z,1007.25
2018-10-06T04:45:20.234Z,1007.22
2018-10-06T04:46:20.192Z,1007.19
2018-10-06T04:47:20.146Z,1007.21
2018-10-06T04:48:20.098Z,1007.24
2018-10-06T04:49:20.055Z,1007.22
2018-10-06T04:50:20.022Z,1007.24
2018-10-06T04:51:19.958Z,1007.20
2018-10-06T04:52:19.913Z,1007.17
2018-10-06T04:53:19.955Z,1007.17
2018-10-06T04:54:19.821Z,1007.19
2018-10-06T04:55:19.774Z,1007.15
2018-10-06T04:56:19.727Z,1007.13
2018-10-06T04:57:19.681Z,1007.13
2018-10-06T04:58:19.641Z,1007.12
2018-10-06T04:59:19.591Z,1007.13
2018-10-06T05:00:19.548Z,1007.14
2018-10-06T05:01:19.499Z,1007.13
2018-10-06T05:02:19.451Z,1007.12
2018-10-06T05:03:19.417Z,1007.08
2018-10-06T05:04:19.360Z,1007.09
2018-10-06T05:05:19.312Z,1007.05
2018-10-06T05:06:19.269Z,1007.09
2018-10-06T05:07:19.223Z,1007.05
2018-10-06T05:08:19.180Z,1007.07
2018-10-06T05:09:19.130Z,1007.05
2018-10-06T05:10:19.087Z,1007.07
2018-10-06T05:11:19.036Z,1007.06
2018-10-06T05:12:18.997Z,1007.06
2018-10-06T05:13:18.945Z,1007.04
2018-10-06T05:14:18.904Z,1007.05
2018-10-06T05:15:18.853Z,1007.04
2018-10-06T05:16:18.809Z,1007.07
2018-10-06T05:17:18.763Z,1007.06
2018-10-06T05:18:18.716Z,1007.08
2018-10-06T05:19:18.668Z,1007.08
2018-10-06T05:20:18.622Z,1007.07
2018-10-06T05:21:18.584Z,1007.07
2018-10-06T05:22:18.532Z,1007.11
2018-10-06T05:23:18.489Z,1007.07
2018-10-06T05:24:18.438Z,1007.07
2018-10-06T05:25:18.396Z,1007.09
2018-10-06T05:26:18.345Z,1007.05
2018-10-06T05:27:18.300Z,1007.04
2018-10-06T05:28:18.254Z,1007.04
2018-10-06T05:29:18.208Z,1007.04
2018-10-06T05:30:18.162Z,1006.99
2018-10-06T05:31:18.116Z,1007.02
2018-10-06T05:32:18.069Z,1006.99
2018-10-06T05:33:18.022Z,1007.00
2018-10-06T05:34:17.976Z,1007.02
2018-10-06T05:35:17.934Z,1007.02
2018-10-06T05:36:17.888Z,1007.01
2018-10-06T05:37:17.838Z,1006.99
2018-10-06T05:38:17.792Z,1007.00
2018-10-06T05:39:17.773Z,1007.01
2018-10-06T05:40:17.712Z,1007.00
2018-10-06T05:41:17.660Z,1007.01
2018-10-06T05:42:17.619Z,1007.02
2018-10-06T05:43:17.561Z,1007.02
2018-10-06T05:44:17.515Z,1007.01
2018-10-06T05:45:17.468Z,1007.03
2018-10-06T05:46:17.486Z,1007.05
2018-10-06T05:47:17.377Z,1007.00
2018-10-06T05:48:17.330Z,1007.01
2018-10-06T05:49:17.282Z,1006.97
2018-10-06T05:50:17.238Z,1006.98
2018-10-06T05:51:17.192Z,1006.95
2018-10-06T05:52:17.147Z,1006.93
2018-10-06T05:53:17.096Z,1006.94
2018-10-06T05:54:17.058Z,1006.91
2018-10-06T05:55:17.005Z,1006.91
2018-10-06T05:56:16.973Z,1006.91
2018-10-06T05:57:16.916Z,1006.91
2018-10-06T05:58:16.865Z,1006.91
2018-10-06T05:59:16.819Z,1006.90
2018-10-06T06:00:16.776Z,1006.92
2018-10-06T06:01:16.729Z,1006.92
2018-10-06T06:02:16.681Z,1006.90
2018-10-06T06:03:16.637Z,1006.93
2018-10-06T06:04:16.589Z,1006.95
2018-10-06T06:05:16.542Z,1006.93
2018-10-06T06:06:16.501Z,1006.93
2018-10-06T06:07:16.450Z,1006.96
2018-10-06T06:08:16.405Z,1006.95
2018-10-06T06:09:16.374Z,1006.94
2018-10-06T06:10:16.310Z,1006.94
2018-10-06T06:11:16.263Z,1006.96
2018-10-06T06:12:16.220Z,1006.99
2018-10-06T06:13:16.175Z,1006.94
2018-10-06T06:14:16.124Z,1006.97
2018-10-06T06:15:16.078Z,1006.95
2018-10-06T06:16:16.032Z,1006.93
2018-10-06T06:17:15.997Z,1006.95
2018-10-06T06:18:15.939Z,1006.99
2018-10-06T06:19:15.912Z,1006.97
2018-10-06T06:20:15.847Z,1006.98
2018-10-06T06:21:15.802Z,1006.95
2018-10-06T06:22:15.754Z,1006.97
2018-10-06T06:23:15.707Z,1006.94
2018-10-06T06:24:15.663Z,1006.94
2018-10-06T06:25:15.618Z,1006.95
2018-10-06T06:26:15.570Z,1006.98
2018-10-06T06:27:15.524Z,1006.98
2018-10-06T06:28:15.477Z,1006.98
2018-10-06T06:29:15.429Z,1006.98
2018-10-06T06:30:15.387Z,1006.96
2018-10-06T06:31:15.401Z,1006.96
2018-10-06T06:32:15.356Z,1006.95
2018-10-06T06:33:15.248Z,1006.98
2018-10-06T06:34:15.199Z,1007.03
2018-10-06T06:35:15.151Z,1006.98
2018-10-06T06:36:15.107Z,1007.02
2018-10-06T06:37:15.064Z,1007.02
2018-10-06T06:38:15.099Z,1007.04
2018-10-06T06:39:14.969Z,1006.99
2018-10-06T06:40:15.791Z,1007.00
2018-10-06T06:41:14.880Z,1006.98
2018-10-06T06:42:14.831Z,1006.98
2018-10-06T06:43:14.786Z,1006.98
2018-10-06T06:44:14.960Z,1006.93
2018-10-06T06:45:14.690Z,1006.97
2018-10-06T06:46:14.643Z,1006.97
2018-10-06T06:47:14.602Z,1006.95
2018-10-06T06:48:14.554Z,1006.98
2018-10-06T06:49:14.590Z,1006.94
2018-10-06T06:50:14.461Z,1006.95
2018-10-06T06:51:14.413Z,1006.94
2018-10-06T06:52:14.367Z,1006.91
2018-10-06T06:53:14.320Z,1006.91
2018-10-06T06:54:14.472Z,1006.90
2018-10-06T06:55:14.230Z,1006.89
2018-10-06T06:56:14.187Z,1006.88
2018-10-06T06:57:14.136Z,1006.90
2018-10-06T06:58:14.093Z,1006.86
2018-10-06T06:59:14.045Z,1006.82
2018-10-06T07:00:14.008Z,1006.83
2018-10-06T07:01:13.953Z,1006.80
2018-10-06T07:02:14.042Z,1006.81
2018-10-06T07:03:13.862Z,1006.82
2018-10-06T07:04:13.816Z,1006.83
2018-10-06T07:05:13.770Z,1006.78
2018-10-06T07:06:13.725Z,1006.78
2018-10-06T07:07:14.344Z,1006.76
2018-10-06T07:08:13.633Z,1006.76
2018-10-06T07:09:13.598Z,1006.72
2018-10-06T07:10:13.542Z,1006.69
2018-10-06T07:11:13.496Z,1006.72
2018-10-06T07:12:13.916Z,1006.66
2018-10-06T07:13:13.403Z,1006.66
2018-10-06T07:14:13.360Z,1006.62
2018-10-06T07:15:13.315Z,1006.66
2018-10-06T07:16:13.267Z,1006.65
2018-10-06T07:17:14.019Z,1006.65
2018-10-06T07:18:13.177Z,1006.62
2018-10-06T07:19:13.134Z,1006.62
2018-10-06T07:20:13.088Z,1006.60
2018-10-06T07:21:13.040Z,1006.59
2018-10-06T07:22:13.072Z,1006.58
2018-10-06T07:23:12.956Z,1006.55
2018-10-06T07:24:12.961Z,1006.59
2018-10-06T07:25:12.934Z,1006.52
2018-10-06T07:26:12.819Z,1006.54
2018-10-06T07:27:12.780Z,1006.53
2018-10-06T07:28:14.982Z,1006.52
2018-10-06T07:29:12.683Z,1006.48
2018-10-06T07:30:12.639Z,1006.50
2018-10-06T07:31:12.607Z,1006.50
2018-10-06T07:32:12.545Z,1006.49
2018-10-06T07:33:12.504Z,1006.48
2018-10-06T07:34:12.459Z,1006.43
2018-10-06T07:35:12.415Z,1006.42
2018-10-06T07:36:12.376Z,1006.42
2018-10-06T07:37:12.323Z,1006.40
2018-10-06T07:38:12.277Z,1006.40
2018-10-06T07:39:12.238Z,1006.39
2018-10-06T07:40:12.190Z,1006.36
2018-10-06T07:41:12.146Z,1006.39
2018-10-06T07:42:12.103Z,1006.42
2018-10-06T07:43:12.058Z,1006.44
2018-10-06T07:44:12.013Z,1006.49
2018-10-06T07:45:11.969Z,1006.52
2018-10-06T07:46:11.929Z,1006.50
2018-10-06T07:47:11.882Z,1006.54
2018-10-06T07:48:11.837Z,1006.49
2018-10-06T07:49:11.792Z,1006.51
2018-10-06T07:50:11.758Z,1006.55
2018-10-06T07:51:11.707Z,1006.58
2018-10-06T07:52:11.669Z,1006.58
2018-10-06T07:53:11.754Z,1006.59
2018-10-06T07:54:11.574Z,1006.59
2018-10-06T07:55:11.531Z,1006.55
2018-10-06T07:56:11.487Z,1006.55
2018-10-06T07:57:11.563Z,1006.55
2018-10-06T07:58:11.399Z,1006.54
2018-10-06T07:59:11.557Z,1006.53
2018-10-06T08:00:11.380Z,1006.51
2018-10-06T08:01:11.328Z,1006.51
2018-10-06T08:02:11.229Z,1006.51
2018-10-06T08:03:11.189Z,1006.51
2018-10-06T08:04:11.140Z,1006.50
2018-10-06T08:05:11.104Z,1006.52
2018-10-06T08:06:11.087Z,1006.46
2018-10-06T08:07:11.020Z,1006.49
2018-10-06T08:08:10.974Z,1006.48
2018-10-06T08:09:10.925Z,1006.47
2018-10-06T08:10:10.881Z,1006.52
2018-10-06T08:11:10.841Z,1006.50
2018-10-06T08:12:10.795Z,1006.44
2018-10-06T08:13:10.756Z,1006.41
2018-10-06T08:14:10.714Z,1006.48
2018-10-06T08:15:10.673Z,1006.41
2018-10-06T08:16:10.626Z,1006.44
2018-10-06T08:17:10.583Z,1006.44
2018-10-06T08:18:10.539Z,1006.45
2018-10-06T08:19:10.499Z,1006.43
2018-10-06T08:20:10.455Z,1006.47
2018-10-06T08:21:10.414Z,1006.46
2018-10-06T08:22:10.371Z,1006.48
2018-10-06T08:23:10.333Z,1006.45
2018-10-06T08:24:10.287Z,1006.48
2018-10-06T08:25:10.251Z,1006.46
2018-10-06T08:26:10.202Z,1006.43
2018-10-06T08:27:10.161Z,1006.43
2018-10-06T08:28:10.123Z,1006.37
2018-10-06T08:29:10.079Z,1006.42
2018-10-06T08:30:10.034Z,1006.38
2018-10-06T08:31:09.993Z,1006.39
2018-10-06T08:32:09.950Z,1006.39
2018-10-06T08:33:09.909Z,1006.41
2018-10-06T08:34:09.881Z,1006.40
2018-10-06T08:35:09.826Z,1006.41
2018-10-06T08:36:09.785Z,1006.40
2018-10-06T08:37:09.742Z,1006.42
2018-10-06T08:38:09.702Z,1006.42
2018-10-06T08:39:09.660Z,1006.38
2018-10-06T08:40:09.622Z,1006.39
2018-10-06T08:41:09.580Z,1006.38
2018-10-06T08:42:09.534Z,1006.37
2018-10-06T08:43:09.497Z,1006.37
2018-10-06T08:44:09.457Z,1006.31
2018-10-06T08:45:09.413Z,1006.33
2018-10-06T08:46:09.370Z,1006.33
2018-10-06T08:47:09.329Z,1006.31
2018-10-06T08:48:09.288Z,1006.27
2018-10-06T08:49:09.249Z,1006.25
2018-10-06T08:50:09.206Z,1006.28
2018-10-06T08:51:09.164Z,1006.23
2018-10-06T08:52:09.125Z,1006.25
2018-10-06T08:53:09.082Z,1006.26
2018-10-06T08:54:09.040Z,1006.18
2018-10-06T08:55:09.009Z,1006.17
2018-10-06T08:56:09.060Z,1006.20
2018-10-06T08:57:08.916Z,1006.19
2018-10-06T08:58:08.878Z,1006.17
2018-10-06T08:59:08.834Z,1006.21
2018-10-06T09:00:08.798Z,1006.21
2018-10-06T09:01:08.756Z,1006.18
2018-10-06T09:02:08.714Z,1006.21
2018-10-06T09:03:08.672Z,1006.20
2018-10-06T09:04:08.680Z,1006.20
2018-10-06T09:05:08.619Z,1006.23
2018-10-06T09:06:08.551Z,1006.24
2018-10-06T09:07:08.509Z,1006.19
2018-10-06T09:08:08.468Z,1006.18
2018-10-06T09:09:08.426Z,1006.20
2018-10-06T09:10:08.385Z,1006.25
2018-10-06T09:11:08.344Z,1006.19
2018-10-06T09:12:08.310Z,1006.17
2018-10-06T09:13:08.264Z,1006.17
2018-10-06T09:14:08.225Z,1006.13
2018-10-06T09:15:08.181Z,1006.18
2018-10-06T09:16:08.146Z,1006.17
2018-10-06T09:17:08.102Z,1006.14
2018-10-06T09:18:08.060Z,1006.12
2018-10-06T09:19:08.020Z,1006.10
2018-10-06T09:20:07.979Z,1006.09
2018-10-06T09:21:07.935Z,1006.09
2018-10-06T09:22:07.897Z,1006.03
2018-10-06T09:23:07.863Z,1006.03
2018-10-06T09:24:07.822Z,1006.00
2018-10-06T09:25:07.776Z,1005.98
2018-10-06T09:26:07.735Z,1005.97
2018-10-06T09:27:07.695Z,1006.00
2018-10-06T09:28:07.680Z,1005.98
2018-10-06T09:29:07.614Z,1005.95
2018-10-06T09:30:07.579Z,1005.93
2018-10-06T09:31:07.535Z,1005.93
2018-10-06T09:32:07.493Z,1005.97
2018-10-06T09:33:07.451Z,1005.88
2018-10-06T09:34:07.520Z,1005.88
2018-10-06T09:35:07.371Z,1005.86
2018-10-06T09:36:07.335Z,1005.89
2018-10-06T09:37:07.292Z,1005.88
2018-10-06T09:38:07.251Z,1005.87
2018-10-06T09:39:07.210Z,1005.86
2018-10-06T09:40:07.172Z,1005.84
2018-10-06T09:41:07.133Z,1005.83
2018-10-06T09:42:07.295Z,1005.82
2018-10-06T09:43:07.052Z,1005.81
2018-10-06T09:44:07.014Z,1005.84
2018-10-06T09:45:06.971Z,1005.81
2018-10-06T09:46:06.930Z,1005.77
2018-10-06T09:47:06.891Z,1005.79
2018-10-06T09:48:06.916Z,1005.82
2018-10-06T09:49:06.814Z,1005.80
2018-10-06T09:50:06.772Z,1005.82
2018-10-06T09:51:06.728Z,1005.82
2018-10-06T09:52:06.692Z,1005.82
2018-10-06T09:53:06.650Z,1005.81
2018-10-06T09:54:06.610Z,1005.81
2018-10-06T09:55:06.572Z,1005.81
2018-10-06T09:56:06.530Z,1005.79
2018-10-06T09:57:06.489Z,1005.81
2018-10-06T09:58:06.448Z,1005.77
2018-10-06T09:59:06.483Z,1005.78
2018-10-06T10:00:06.370Z,1005.78
2018-10-06T10:01:06.330Z,1005.81
2018-10-06T10:02:06.287Z,1005.78
2018-10-06T10:03:06.365Z,1005.78
2018-10-06T10:04:06.209Z,1005.77
2018-10-06T10:05:06.170Z,1005.80
2018-10-06T10:06:06.127Z,1005.78
2018-10-06T10:07:06.094Z,1005.75
2018-10-06T10:08:06.049Z,1005.72
2018-10-06T10:09:06.007Z,1005.73
2018-10-06T10:10:05.977Z,1005.72
2018-10-06T10:11:05.928Z,1005.75
2018-10-06T10:12:06.771Z,1005.74
2018-10-06T10:13:05.851Z,1005.70
2018-10-06T10:14:05.808Z,1005.70
2018-10-06T10:15:05.767Z,1005.68
2018-10-06T10:16:05.730Z,1005.70
2018-10-06T10:17:05.803Z,1005.69
2018-10-06T10:18:05.782Z,1005.69
2018-10-06T10:19:05.610Z,1005.71
2018-10-06T10:20:05.569Z,1005.73
2018-10-06T10:21:05.526Z,1005.69
2018-10-06T10:22:05.607Z,1005.75
2018-10-06T10:23:05.488Z,1005.75
2018-10-06T10:24:05.408Z,1005.75
2018-10-06T10:25:05.370Z,1005.76
2018-10-06T10:26:05.327Z,1005.79
2018-10-06T10:27:05.287Z,1005.71
2018-10-06T10:28:05.246Z,1005.74
2018-10-06T10:29:05.207Z,1005.72
2018-10-06T10:30:05.165Z,1005.63
2018-10-06T10:31:05.127Z,1005.68
2018-10-06T10:32:05.087Z,1005.64
2018-10-06T10:33:05.050Z,1005.60
2018-10-06T10:34:05.005Z,1005.59
2018-10-06T10:35:04.965Z,1005.62
2018-10-06T10:36:04.925Z,1005.60
2018-10-06T10:37:04.891Z,1005.61
2018-10-06T10:38:04.860Z,1005.62
2018-10-06T10:39:04.848Z,1005.60
2018-10-06T10:40:04.766Z,1005.62
2018-10-06T10:41:04.723Z,1005.63
2018-10-06T10:42:04.687Z,1005.62
2018-10-06T10:43:04.645Z,1005.59
2018-10-06T10:44:04.697Z,1005.58
2018-10-06T10:45:04.564Z,1005.55
2018-10-06T10:46:04.526Z,1005.52
2018-10-06T10:47:04.485Z,1005.56
2018-10-06T10:48:04.445Z,1005.56
2018-10-06T10:49:04.402Z,1005.60
2018-10-06T10:50:04.429Z,1005.52
2018-10-06T10:51:04.330Z,1005.53
2018-10-06T10:52:04.285Z,1005.50
2018-10-06T10:53:04.241Z,1005.54
2018-10-06T10:54:04.202Z,1005.42
2018-10-06T10:55:04.163Z,1005.47
2018-10-06T10:56:04.120Z,1005.47
2018-10-06T10:57:04.083Z,1005.43
2018-10-06T10:58:04.044Z,1005.45
2018-10-06T10:59:04.002Z,1005.47
2018-10-06T11:00:04.094Z,1005.41
2018-10-06T11:01:03.977Z,1005.40
2018-10-06T11:02:03.880Z,1005.41
2018-10-06T11:03:03.842Z,1005.45
2018-10-06T11:04:03.801Z,1005.40
2018-10-06T11:05:03.770Z,1005.34
2018-10-06T11:06:03.716Z,1005.33
2018-10-06T11:07:03.678Z,1005.30
2018-10-06T11:08:03.638Z,1005.30
2018-10-06T11:09:03.597Z,1005.28
2018-10-06T11:10:03.559Z,1005.29
2018-10-06T11:11:03.619Z,1005.26
2018-10-06T11:12:03.475Z,1005.23
2018-10-06T11:13:03.441Z,1005.22
2018-10-06T11:14:03.395Z,1005.21
2018-10-06T11:15:04.378Z,1005.23
2018-10-06T11:16:03.314Z,1005.22
2018-10-06T11:17:03.298Z,1005.23
2018-10-06T11:18:03.231Z,1005.22
2018-10-06T11:19:03.966Z,1005.22
2018-10-06T11:20:03.153Z,1005.21
2018-10-06T11:21:03.110Z,1005.19
2018-10-06T11:22:03.070Z,1005.20
2018-10-06T11:23:03.081Z,1005.21
2018-10-06T11:24:02.989Z,1005.20
2018-10-06T11:25:02.949Z,1005.21
2018-10-06T11:26:02.914Z,1005.19
2018-10-06T11:27:02.871Z,1005.20
2018-10-06T11:28:02.830Z,1005.14
2018-10-06T11:29:02.788Z,1005.16
2018-10-06T11:30:02.755Z,1005.14
2018-10-06T11:31:02.707Z,1005.17
2018-10-06T11:32:02.669Z,1005.09
2018-10-06T11:33:02.626Z,1005.08
2018-10-06T11:34:02.585Z,1005.06
2018-10-06T11:35:02.548Z,1005.04
2018-10-06T11:36:02.512Z,1005.04
2018-10-06T11:37:02.484Z,1005.03
2018-10-06T11:38:02.441Z,1005.04
2018-10-06T11:39:02.383Z,1005.01
2018-10-06T11:40:02.343Z,1005.01
2018-10-06T11:41:02.306Z,1004.93
2018-10-06T11:42:02.261Z,1004.89
2018-10-06T11:43:02.895Z,1004.91
2018-10-06T11:44:02.182Z,1004.90
2018-10-06T11:45:02.145Z,1004.89
2018-10-06T11:46:02.102Z,1004.90
2018-10-06T11:47:02.062Z,1004.84
2018-10-06T11:48:02.021Z,1004.86
2018-10-06T11:49:01.980Z,1004.83
2018-10-06T11:50:02.580Z,1004.83
2018-10-06T11:51:01.900Z,1004.80
2018-10-06T11:52:01.857Z,1004.81
2018-10-06T11:53:01.817Z,1004.84
2018-10-06T11:54:01.781Z,1004.80
2018-10-06T11:55:01.737Z,1004.79
2018-10-06T11:56:01.700Z,1004.73
2018-10-06T11:57:01.659Z,1004.73
2018-10-06T11:58:02.234Z,1004.78
2018-10-06T11:59:01.580Z,1004.76
2018-10-06T12:00:01.567Z,1004.76
2018-10-06T12:01:01.499Z,1004.70
2018-10-06T12:02:01.456Z,1004.70
2018-10-06T12:04:01.394Z,1004.69
2018-10-06T12:05:01.339Z,1004.70
2018-10-06T12:06:01.295Z,1004.66